sensor_id;sensor_type;location;lat;lon;timestamp;temperature;humidity
59505;DHT22;45321;53.200;5.814;2023-09-08T00:01:50;23.20;65.10
59505;DHT22;45321;53.200;5.814;2023-09-08T00:04:16;23.10;65.00
59505;DHT22;45321;53.200;5.814;2023-09-08T00:06:45;23.10;65.40
59505;DHT22;45321;53.200;5.814;2023-09-08T00:09:11;23.00;65.50
59505;DHT22;45321;53.200;5.814;2023-09-08T00:11:37;23.00;65.30
59505;DHT22;45321;53.200;5.814;2023-09-08T00:14:03;23.00;65.50
59505;DHT22;45321;53.200;5.814;2023-09-08T00:16:29;23.00;65.70
59505;DHT22;45321;53.200;5.814;2023-09-08T00:18:56;22.90;65.50
59505;DHT22;45321;53.200;5.814;2023-09-08T00:21:22;22.90;65.60
59505;DHT22;45321;53.200;5.814;2023-09-08T00:23:48;22.80;65.70
59505;DHT22;45321;53.200;5.814;2023-09-08T00:26:14;22.90;65.80
59505;DHT22;45321;53.200;5.814;2023-09-08T00:28:40;22.80;65.90
59505;DHT22;45321;53.200;5.814;2023-09-08T00:31:05;22.80;65.90
59505;DHT22;45321;53.200;5.814;2023-09-08T00:33:31;22.80;66.00
59505;DHT22;45321;53.200;5.814;2023-09-08T00:35:57;22.70;66.10
59505;DHT22;45321;53.200;5.814;2023-09-08T00:38:23;22.70;66.00
59505;DHT22;45321;53.200;5.814;2023-09-08T00:40:49;22.70;66.20
59505;DHT22;45321;53.200;5.814;2023-09-08T00:43:14;22.70;66.30
59505;DHT22;45321;53.200;5.814;2023-09-08T00:45:42;22.60;66.50
59505;DHT22;45321;53.200;5.814;2023-09-08T00:48:09;22.60;66.50
59505;DHT22;45321;53.200;5.814;2023-09-08T00:50:36;22.60;66.50
59505;DHT22;45321;53.200;5.814;2023-09-08T00:53:06;22.60;66.60
59505;DHT22;45321;53.200;5.814;2023-09-08T00:55:32;22.50;66.50
59505;DHT22;45321;53.200;5.814;2023-09-08T00:57:59;22.50;66.60
59505;DHT22;45321;53.200;5.814;2023-09-08T01:00:25;22.50;66.70
59505;DHT22;45321;53.200;5.814;2023-09-08T01:02:51;22.50;66.80
59505;DHT22;45321;53.200;5.814;2023-09-08T01:05:19;22.40;66.80
59505;DHT22;45321;53.200;5.814;2023-09-08T01:07:46;22.40;66.80
59505;DHT22;45321;53.200;5.814;2023-09-08T01:10:13;22.40;66.80
59505;DHT22;45321;53.200;5.814;2023-09-08T01:12:39;22.40;66.80
59505;DHT22;45321;53.200;5.814;2023-09-08T01:15:06;22.30;66.90
59505;DHT22;45321;53.200;5.814;2023-09-08T01:17:32;22.30;66.90
59505;DHT22;45321;53.200;5.814;2023-09-08T01:20:30;22.30;67.20
59505;DHT22;45321;53.200;5.814;2023-09-08T01:26:07;22.20;67.10
59505;DHT22;45321;53.200;5.814;2023-09-08T01:28:34;22.20;67.20
59505;DHT22;45321;53.200;5.814;2023-09-08T01:31:00;22.20;67.30
59505;DHT22;45321;53.200;5.814;2023-09-08T01:33:26;22.20;67.30
59505;DHT22;45321;53.200;5.814;2023-09-08T01:35:52;22.20;67.40
59505;DHT22;45321;53.200;5.814;2023-09-08T01:38:18;22.10;67.30
59505;DHT22;45321;53.200;5.814;2023-09-08T01:40:44;22.00;67.60
59505;DHT22;45321;53.200;5.814;2023-09-08T01:43:10;22.00;67.50
59505;DHT22;45321;53.200;5.814;2023-09-08T01:45:36;22.00;67.80
59505;DHT22;45321;53.200;5.814;2023-09-08T01:48:01;22.00;67.80
59505;DHT22;45321;53.200;5.814;2023-09-08T01:50:27;21.90;67.90
59505;DHT22;45321;53.200;5.814;2023-09-08T01:52:53;22.00;67.90
59505;DHT22;45321;53.200;5.814;2023-09-08T01:55:18;22.00;67.90
59505;DHT22;45321;53.200;5.814;2023-09-08T01:57:46;21.90;68.00
59505;DHT22;45321;53.200;5.814;2023-09-08T02:00:12;21.90;68.00
59505;DHT22;45321;53.200;5.814;2023-09-08T02:02:38;21.80;68.10
59505;DHT22;45321;53.200;5.814;2023-09-08T02:05:04;21.80;68.40
59505;DHT22;45321;53.200;5.814;2023-09-08T02:07:30;21.80;68.40
59505;DHT22;45321;53.200;5.814;2023-09-08T02:09:56;21.80;68.60
59505;DHT22;45321;53.200;5.814;2023-09-08T02:12:22;21.70;68.50
59505;DHT22;45321;53.200;5.814;2023-09-08T02:14:48;21.70;68.60
59505;DHT22;45321;53.200;5.814;2023-09-08T02:17:14;21.70;68.70
59505;DHT22;45321;53.200;5.814;2023-09-08T02:19:40;21.70;69.00
59505;DHT22;45321;53.200;5.814;2023-09-08T02:22:05;21.70;69.00
59505;DHT22;45321;53.200;5.814;2023-09-08T02:24:31;21.70;68.90
59505;DHT22;45321;53.200;5.814;2023-09-08T02:26:57;21.70;68.90
59505;DHT22;45321;53.200;5.814;2023-09-08T02:29:22;21.70;69.10
59505;DHT22;45321;53.200;5.814;2023-09-08T02:31:48;21.70;69.00
59505;DHT22;45321;53.200;5.814;2023-09-08T02:34:14;21.60;69.20
59505;DHT22;45321;53.200;5.814;2023-09-08T02:36:40;21.60;69.10
59505;DHT22;45321;53.200;5.814;2023-09-08T02:39:06;21.60;69.10
59505;DHT22;45321;53.200;5.814;2023-09-08T02:41:32;21.60;69.20
59505;DHT22;45321;53.200;5.814;2023-09-08T02:43:59;21.60;69.10
59505;DHT22;45321;53.200;5.814;2023-09-08T02:46:25;21.50;69.30
59505;DHT22;45321;53.200;5.814;2023-09-08T02:48:51;21.50;69.50
59505;DHT22;45321;53.200;5.814;2023-09-08T02:51:18;21.50;69.50
59505;DHT22;45321;53.200;5.814;2023-09-08T02:53:44;21.50;69.60
59505;DHT22;45321;53.200;5.814;2023-09-08T02:56:09;21.50;69.50
59505;DHT22;45321;53.200;5.814;2023-09-08T02:58:35;21.40;69.70
59505;DHT22;45321;53.200;5.814;2023-09-08T03:01:12;21.50;69.60
59505;DHT22;45321;53.200;5.814;2023-09-08T03:03:39;21.40;69.20
59505;DHT22;45321;53.200;5.814;2023-09-08T03:06:05;21.40;69.80
59505;DHT22;45321;53.200;5.814;2023-09-08T03:08:30;21.40;69.80
59505;DHT22;45321;53.200;5.814;2023-09-08T03:10:58;21.30;69.80
59505;DHT22;45321;53.200;5.814;2023-09-08T03:13:24;21.30;69.90
59505;DHT22;45321;53.200;5.814;2023-09-08T03:15:51;21.30;70.00
59505;DHT22;45321;53.200;5.814;2023-09-08T03:18:17;21.30;70.00
59505;DHT22;45321;53.200;5.814;2023-09-08T03:20:43;21.20;70.10
59505;DHT22;45321;53.200;5.814;2023-09-08T03:23:13;21.20;70.10
59505;DHT22;45321;53.200;5.814;2023-09-08T03:25:38;21.20;70.00
59505;DHT22;45321;53.200;5.814;2023-09-08T03:28:04;21.20;69.80
59505;DHT22;45321;53.200;5.814;2023-09-08T03:30:30;21.20;70.30
59505;DHT22;45321;53.200;5.814;2023-09-08T03:32:55;21.20;70.20
59505;DHT22;45321;53.200;5.814;2023-09-08T03:35:21;21.10;70.40
59505;DHT22;45321;53.200;5.814;2023-09-08T03:37:47;21.10;70.40
59505;DHT22;45321;53.200;5.814;2023-09-08T03:40:12;21.10;70.30
59505;DHT22;45321;53.200;5.814;2023-09-08T03:42:38;21.00;70.50
59505;DHT22;45321;53.200;5.814;2023-09-08T03:45:07;21.00;70.50
59505;DHT22;45321;53.200;5.814;2023-09-08T03:47:33;21.00;70.60
59505;DHT22;45321;53.200;5.814;2023-09-08T03:49:58;20.90;70.50
59505;DHT22;45321;53.200;5.814;2023-09-08T03:52:24;20.90;70.70
59505;DHT22;45321;53.200;5.814;2023-09-08T03:54:50;20.90;70.70
59505;DHT22;45321;53.200;5.814;2023-09-08T03:57:16;20.90;70.80
59505;DHT22;45321;53.200;5.814;2023-09-08T03:59:42;20.80;70.90
59505;DHT22;45321;53.200;5.814;2023-09-08T04:02:07;20.80;70.80
59505;DHT22;45321;53.200;5.814;2023-09-08T04:04:33;20.80;70.80
59505;DHT22;45321;53.200;5.814;2023-09-08T04:07:01;20.80;71.00
59505;DHT22;45321;53.200;5.814;2023-09-08T04:09:27;20.70;71.00
59505;DHT22;45321;53.200;5.814;2023-09-08T04:11:53;20.70;71.20
59505;DHT22;45321;53.200;5.814;2023-09-08T04:14:20;20.70;71.20
59505;DHT22;45321;53.200;5.814;2023-09-08T04:16:49;20.70;71.10
59505;DHT22;45321;53.200;5.814;2023-09-08T04:19:14;20.70;71.10
59505;DHT22;45321;53.200;5.814;2023-09-08T04:21:41;20.60;71.20
59505;DHT22;45321;53.200;5.814;2023-09-08T04:24:07;20.60;71.30
59505;DHT22;45321;53.200;5.814;2023-09-08T04:26:32;20.60;71.50
59505;DHT22;45321;53.200;5.814;2023-09-08T04:28:58;20.60;71.40
59505;DHT22;45321;53.200;5.814;2023-09-08T04:31:24;20.50;71.50
59505;DHT22;45321;53.200;5.814;2023-09-08T04:33:50;20.50;71.70
59505;DHT22;45321;53.200;5.814;2023-09-08T04:36:15;20.50;71.70
59505;DHT22;45321;53.200;5.814;2023-09-08T04:38:41;20.50;71.60
59505;DHT22;45321;53.200;5.814;2023-09-08T04:41:07;20.50;71.70
59505;DHT22;45321;53.200;5.814;2023-09-08T04:43:33;20.40;71.60
59505;DHT22;45321;53.200;5.814;2023-09-08T04:45:58;20.40;71.90
59505;DHT22;45321;53.200;5.814;2023-09-08T04:48:24;20.40;71.80
59505;DHT22;45321;53.200;5.814;2023-09-08T04:50:51;20.30;72.00
59505;DHT22;45321;53.200;5.814;2023-09-08T04:53:16;20.30;71.90
59505;DHT22;45321;53.200;5.814;2023-09-08T04:55:43;20.30;72.10
59505;DHT22;45321;53.200;5.814;2023-09-08T04:58:09;20.30;72.10
59505;DHT22;45321;53.200;5.814;2023-09-08T05:00:34;20.30;72.20
59505;DHT22;45321;53.200;5.814;2023-09-08T05:03:00;20.30;72.30
59505;DHT22;45321;53.200;5.814;2023-09-08T05:05:26;20.30;71.90
59505;DHT22;45321;53.200;5.814;2023-09-08T05:07:52;20.30;72.10
59505;DHT22;45321;53.200;5.814;2023-09-08T05:10:24;20.30;72.10
59505;DHT22;45321;53.200;5.814;2023-09-08T05:12:51;20.40;72.40
59505;DHT22;45321;53.200;5.814;2023-09-08T05:15:17;20.40;72.20
59505;DHT22;45321;53.200;5.814;2023-09-08T05:17:46;20.50;72.10
59505;DHT22;45321;53.200;5.814;2023-09-08T05:20:12;20.40;71.80
59505;DHT22;45321;53.200;5.814;2023-09-08T05:22:38;20.40;71.80
59505;DHT22;45321;53.200;5.814;2023-09-08T05:25:04;20.40;72.20
59505;DHT22;45321;53.200;5.814;2023-09-08T05:27:30;20.40;72.30
59505;DHT22;45321;53.200;5.814;2023-09-08T05:29:57;20.40;72.10
59505;DHT22;45321;53.200;5.814;2023-09-08T05:32:22;20.40;72.50
59505;DHT22;45321;53.200;5.814;2023-09-08T05:34:49;20.40;72.20
59505;DHT22;45321;53.200;5.814;2023-09-08T05:37:15;20.40;72.60
59505;DHT22;45321;53.200;5.814;2023-09-08T05:39:41;20.50;72.20
59505;DHT22;45321;53.200;5.814;2023-09-08T05:42:07;20.50;72.60
59505;DHT22;45321;53.200;5.814;2023-09-08T05:44:33;20.50;72.30
59505;DHT22;45321;53.200;5.814;2023-09-08T05:46:59;20.50;72.40
59505;DHT22;45321;53.200;5.814;2023-09-08T05:49:25;20.60;72.10
59505;DHT22;45321;53.200;5.814;2023-09-08T05:51:50;20.50;72.20
59505;DHT22;45321;53.200;5.814;2023-09-08T05:54:16;20.50;72.20
59505;DHT22;45321;53.200;5.814;2023-09-08T05:56:42;20.50;71.90
59505;DHT22;45321;53.200;5.814;2023-09-08T05:59:07;20.50;71.90
59505;DHT22;45321;53.200;5.814;2023-09-08T06:01:33;20.50;72.00
59505;DHT22;45321;53.200;5.814;2023-09-08T06:03:59;20.60;71.80
59505;DHT22;45321;53.200;5.814;2023-09-08T06:06:25;20.50;71.90
59505;DHT22;45321;53.200;5.814;2023-09-08T06:08:50;20.50;72.10
59505;DHT22;45321;53.200;5.814;2023-09-08T06:11:16;20.60;72.10
59505;DHT22;45321;53.200;5.814;2023-09-08T06:13:42;20.60;72.00
59505;DHT22;45321;53.200;5.814;2023-09-08T06:16:08;20.60;72.00
59505;DHT22;45321;53.200;5.814;2023-09-08T06:18:34;20.60;72.10
59505;DHT22;45321;53.200;5.814;2023-09-08T06:21:06;20.60;72.30
59505;DHT22;45321;53.200;5.814;2023-09-08T06:23:33;20.60;72.40
59505;DHT22;45321;53.200;5.814;2023-09-08T06:25:59;20.60;72.60
59505;DHT22;45321;53.200;5.814;2023-09-08T06:28:26;20.60;72.60
59505;DHT22;45321;53.200;5.814;2023-09-08T06:30:53;20.60;72.70
59505;DHT22;45321;53.200;5.814;2023-09-08T06:33:19;20.60;72.90
59505;DHT22;45321;53.200;5.814;2023-09-08T06:35:46;20.60;72.80
59505;DHT22;45321;53.200;5.814;2023-09-08T06:38:12;20.60;72.90
59505;DHT22;45321;53.200;5.814;2023-09-08T06:40:38;20.60;72.80
59505;DHT22;45321;53.200;5.814;2023-09-08T06:43:04;20.70;73.00
59505;DHT22;45321;53.200;5.814;2023-09-08T06:45:29;20.70;72.90
59505;DHT22;45321;53.200;5.814;2023-09-08T06:47:55;20.70;72.80
59505;DHT22;45321;53.200;5.814;2023-09-08T06:50:24;20.80;73.00
59505;DHT22;45321;53.200;5.814;2023-09-08T06:52:50;20.90;72.90
59505;DHT22;45321;53.200;5.814;2023-09-08T06:55:16;20.90;72.60
59505;DHT22;45321;53.200;5.814;2023-09-08T06:57:43;21.00;72.60
59505;DHT22;45321;53.200;5.814;2023-09-08T07:00:09;21.10;72.30
59505;DHT22;45321;53.200;5.814;2023-09-08T07:02:37;21.20;72.00
59505;DHT22;45321;53.200;5.814;2023-09-08T07:05:03;21.30;71.70
59505;DHT22;45321;53.200;5.814;2023-09-08T07:07:37;21.30;71.30
59505;DHT22;45321;53.200;5.814;2023-09-08T07:10:04;21.40;71.50
59505;DHT22;45321;53.200;5.814;2023-09-08T07:12:30;21.50;71.10
59505;DHT22;45321;53.200;5.814;2023-09-08T07:14:56;21.50;71.20
59505;DHT22;45321;53.200;5.814;2023-09-08T07:17:22;21.60;70.80
59505;DHT22;45321;53.200;5.814;2023-09-08T07:19:51;21.70;70.50
59505;DHT22;45321;53.200;5.814;2023-09-08T07:22:17;21.70;71.00
59505;DHT22;45321;53.200;5.814;2023-09-08T07:24:43;21.70;70.90
59505;DHT22;45321;53.200;5.814;2023-09-08T07:27:10;21.80;70.70
59505;DHT22;45321;53.200;5.814;2023-09-08T07:29:35;21.80;70.60
59505;DHT22;45321;53.200;5.814;2023-09-08T07:32:01;21.90;70.90
59505;DHT22;45321;53.200;5.814;2023-09-08T07:34:27;21.90;71.50
59505;DHT22;45321;53.200;5.814;2023-09-08T07:36:52;22.10;71.30
59505;DHT22;45321;53.200;5.814;2023-09-08T07:39:18;22.20;71.10
59505;DHT22;45321;53.200;5.814;2023-09-08T07:41:44;22.30;71.00
59505;DHT22;45321;53.200;5.814;2023-09-08T07:44:10;22.40;70.90
59505;DHT22;45321;53.200;5.814;2023-09-08T07:46:35;22.50;71.00
59505;DHT22;45321;53.200;5.814;2023-09-08T07:49:01;22.60;71.00
59505;DHT22;45321;53.200;5.814;2023-09-08T07:51:27;22.70;70.90
59505;DHT22;45321;53.200;5.814;2023-09-08T07:53:53;22.80;70.60
59505;DHT22;45321;53.200;5.814;2023-09-08T07:56:19;22.80;70.20
59505;DHT22;45321;53.200;5.814;2023-09-08T07:58:45;23.00;70.10
59505;DHT22;45321;53.200;5.814;2023-09-08T08:01:12;23.00;69.80
59505;DHT22;45321;53.200;5.814;2023-09-08T08:03:38;23.10;69.70
59505;DHT22;45321;53.200;5.814;2023-09-08T08:06:04;23.20;69.70
59505;DHT22;45321;53.200;5.814;2023-09-08T08:08:31;23.20;69.50
59505;DHT22;45321;53.200;5.814;2023-09-08T08:10:57;23.30;69.30
59505;DHT22;45321;53.200;5.814;2023-09-08T08:13:22;23.40;69.40
59505;DHT22;45321;53.200;5.814;2023-09-08T08:15:48;23.40;69.10
59505;DHT22;45321;53.200;5.814;2023-09-08T08:18:15;23.50;69.00
59505;DHT22;45321;53.200;5.814;2023-09-08T08:20:40;23.50;68.90
59505;DHT22;45321;53.200;5.814;2023-09-08T08:23:06;23.60;68.70
59505;DHT22;45321;53.200;5.814;2023-09-08T08:25:32;23.70;69.20
59505;DHT22;45321;53.200;5.814;2023-09-08T08:27:58;23.70;69.10
59505;DHT22;45321;53.200;5.814;2023-09-08T08:30:27;23.80;68.90
59505;DHT22;45321;53.200;5.814;2023-09-08T08:32:52;23.80;69.30
59505;DHT22;45321;53.200;5.814;2023-09-08T08:35:19;23.90;68.90
59505;DHT22;45321;53.200;5.814;2023-09-08T08:37:45;23.90;69.30
59505;DHT22;45321;53.200;5.814;2023-09-08T08:40:12;24.00;69.10
59505;DHT22;45321;53.200;5.814;2023-09-08T08:42:38;24.00;68.40
59505;DHT22;45321;53.200;5.814;2023-09-08T08:45:05;24.10;67.20
59505;DHT22;45321;53.200;5.814;2023-09-08T08:47:31;24.10;68.20
59505;DHT22;45321;53.200;5.814;2023-09-08T08:49:58;24.10;68.40
59505;DHT22;45321;53.200;5.814;2023-09-08T08:52:25;24.20;68.50
59505;DHT22;45321;53.200;5.814;2023-09-08T08:54:51;24.20;68.60
59505;DHT22;45321;53.200;5.814;2023-09-08T08:57:17;24.30;68.30
59505;DHT22;45321;53.200;5.814;2023-09-08T08:59:45;24.30;67.50
59505;DHT22;45321;53.200;5.814;2023-09-08T09:02:12;24.40;68.40
59505;DHT22;45321;53.200;5.814;2023-09-08T09:04:40;24.40;67.70
59505;DHT22;45321;53.200;5.814;2023-09-08T09:07:07;24.50;68.30
59505;DHT22;45321;53.200;5.814;2023-09-08T09:09:33;24.60;68.00
59505;DHT22;45321;53.200;5.814;2023-09-08T09:11:59;24.70;68.40
59505;DHT22;45321;53.200;5.814;2023-09-08T09:14:25;24.70;67.90
59505;DHT22;45321;53.200;5.814;2023-09-08T09:16:51;24.80;68.00
59505;DHT22;45321;53.200;5.814;2023-09-08T09:19:21;24.80;68.20
59505;DHT22;45321;53.200;5.814;2023-09-08T09:21:53;24.90;68.30
59505;DHT22;45321;53.200;5.814;2023-09-08T09:24:38;25.00;68.40
59505;DHT22;45321;53.200;5.814;2023-09-08T09:27:07;25.10;68.00
59505;DHT22;45321;53.200;5.814;2023-09-08T09:29:33;25.20;67.80
59505;DHT22;45321;53.200;5.814;2023-09-08T09:32:04;25.20;68.00
59505;DHT22;45321;53.200;5.814;2023-09-08T09:34:34;25.20;67.50
59505;DHT22;45321;53.200;5.814;2023-09-08T09:37:00;25.30;67.70
59505;DHT22;45321;53.200;5.814;2023-09-08T09:39:27;25.40;67.50
59505;DHT22;45321;53.200;5.814;2023-09-08T09:41:57;25.40;67.30
59505;DHT22;45321;53.200;5.814;2023-09-08T09:44:24;25.50;67.30
59505;DHT22;45321;53.200;5.814;2023-09-08T09:46:52;25.60;66.80
59505;DHT22;45321;53.200;5.814;2023-09-08T09:49:18;25.60;67.30
59505;DHT22;45321;53.200;5.814;2023-09-08T09:51:46;25.70;67.20
59505;DHT22;45321;53.200;5.814;2023-09-08T09:54:13;25.70;67.00
59505;DHT22;45321;53.200;5.814;2023-09-08T09:56:39;25.70;67.10
59505;DHT22;45321;53.200;5.814;2023-09-08T09:59:08;25.70;67.00
59505;DHT22;45321;53.200;5.814;2023-09-08T10:01:35;25.80;66.90
59505;DHT22;45321;53.200;5.814;2023-09-08T10:04:02;25.90;67.50
59505;DHT22;45321;53.200;5.814;2023-09-08T10:06:31;25.90;67.00
59505;DHT22;45321;53.200;5.814;2023-09-08T10:08:59;26.00;67.40
59505;DHT22;45321;53.200;5.814;2023-09-08T10:11:29;26.10;66.80
59505;DHT22;45321;53.200;5.814;2023-09-08T10:13:58;26.20;66.60
59505;DHT22;45321;53.200;5.814;2023-09-08T10:16:26;26.20;66.10
59505;DHT22;45321;53.200;5.814;2023-09-08T10:18:54;26.30;66.60
59505;DHT22;45321;53.200;5.814;2023-09-08T10:21:23;26.40;66.40
59505;DHT22;45321;53.200;5.814;2023-09-08T10:23:59;26.40;66.00
59505;DHT22;45321;53.200;5.814;2023-09-08T10:26:29;26.50;65.90
59505;DHT22;45321;53.200;5.814;2023-09-08T10:28:55;26.60;65.90
59505;DHT22;45321;53.200;5.814;2023-09-08T10:31:25;26.70;65.60
59505;DHT22;45321;53.200;5.814;2023-09-08T10:33:55;26.70;66.10
59505;DHT22;45321;53.200;5.814;2023-09-08T10:36:23;26.80;66.60
59505;DHT22;45321;53.200;5.814;2023-09-08T10:38:49;26.90;65.90
59505;DHT22;45321;53.200;5.814;2023-09-08T10:43:43;27.10;65.20
59505;DHT22;45321;53.200;5.814;2023-09-08T10:46:10;27.20;65.80
59505;DHT22;45321;53.200;5.814;2023-09-08T10:48:43;27.20;65.10
59505;DHT22;45321;53.200;5.814;2023-09-08T10:51:17;27.30;66.10
59505;DHT22;45321;53.200;5.814;2023-09-08T10:53:46;27.40;66.00
59505;DHT22;45321;53.200;5.814;2023-09-08T10:56:11;27.40;64.30
59505;DHT22;45321;53.200;5.814;2023-09-08T10:58:38;27.50;63.00
59505;DHT22;45321;53.200;5.814;2023-09-08T11:01:06;27.60;64.60
59505;DHT22;45321;53.200;5.814;2023-09-08T11:06:10;27.70;63.70
59505;DHT22;45321;53.200;5.814;2023-09-08T11:08:42;27.80;64.90
59505;DHT22;45321;53.200;5.814;2023-09-08T11:11:10;27.90;65.00
59505;DHT22;45321;53.200;5.814;2023-09-08T11:13:36;28.00;64.80
59505;DHT22;45321;53.200;5.814;2023-09-08T11:16:03;28.10;64.10
59505;DHT22;45321;53.200;5.814;2023-09-08T11:18:29;28.20;62.70
59505;DHT22;45321;53.200;5.814;2023-09-08T11:20:56;28.30;61.60
59505;DHT22;45321;53.200;5.814;2023-09-08T11:23:22;28.40;62.00
59505;DHT22;45321;53.200;5.814;2023-09-08T11:25:49;28.50;62.20
59505;DHT22;45321;53.200;5.814;2023-09-08T11:28:17;28.60;62.40
59505;DHT22;45321;53.200;5.814;2023-09-08T11:30:45;28.70;62.00
59505;DHT22;45321;53.200;5.814;2023-09-08T11:33:19;28.70;61.50
59505;DHT22;45321;53.200;5.814;2023-09-08T11:35:49;28.80;61.50
59505;DHT22;45321;53.200;5.814;2023-09-08T11:38:15;28.90;61.60
59505;DHT22;45321;53.200;5.814;2023-09-08T11:40:41;29.00;61.70
59505;DHT22;45321;53.200;5.814;2023-09-08T11:43:07;29.10;62.10
59505;DHT22;45321;53.200;5.814;2023-09-08T11:45:36;29.20;61.50
59505;DHT22;45321;53.200;5.814;2023-09-08T11:48:03;29.20;60.80
59505;DHT22;45321;53.200;5.814;2023-09-08T11:50:30;29.20;58.90
59505;DHT22;45321;53.200;5.814;2023-09-08T11:52:56;29.30;59.80
59505;DHT22;45321;53.200;5.814;2023-09-08T11:55:24;29.30;60.40
59505;DHT22;45321;53.200;5.814;2023-09-08T11:57:53;29.40;61.70
59505;DHT22;45321;53.200;5.814;2023-09-08T12:00:28;29.50;61.50
59505;DHT22;45321;53.200;5.814;2023-09-08T12:02:55;29.60;62.20
59505;DHT22;45321;53.200;5.814;2023-09-08T12:05:25;29.60;59.80
59505;DHT22;45321;53.200;5.814;2023-09-08T12:07:52;29.70;60.90
59505;DHT22;45321;53.200;5.814;2023-09-08T12:10:18;29.80;62.10
59505;DHT22;45321;53.200;5.814;2023-09-08T12:12:49;29.90;59.20
59505;DHT22;45321;53.200;5.814;2023-09-08T12:15:35;29.90;59.40
59505;DHT22;45321;53.200;5.814;2023-09-08T12:18:03;30.00;60.30
59505;DHT22;45321;53.200;5.814;2023-09-08T12:20:29;30.00;60.20
59505;DHT22;45321;53.200;5.814;2023-09-08T12:22:59;30.00;58.80
59505;DHT22;45321;53.200;5.814;2023-09-08T12:25:25;30.10;59.70
59505;DHT22;45321;53.200;5.814;2023-09-08T12:27:54;30.10;58.70
59505;DHT22;45321;53.200;5.814;2023-09-08T12:30:21;30.10;59.70
59505;DHT22;45321;53.200;5.814;2023-09-08T12:32:51;30.10;59.40
59505;DHT22;45321;53.200;5.814;2023-09-08T12:35:21;30.20;60.90
59505;DHT22;45321;53.200;5.814;2023-09-08T12:38:00;30.20;58.80
59505;DHT22;45321;53.200;5.814;2023-09-08T12:40:28;30.20;59.70
59505;DHT22;45321;53.200;5.814;2023-09-08T12:42:54;30.30;60.50
59505;DHT22;45321;53.200;5.814;2023-09-08T12:45:22;30.40;57.80
59505;DHT22;45321;53.200;5.814;2023-09-08T12:47:53;30.50;57.30
59505;DHT22;45321;53.200;5.814;2023-09-08T12:50:20;30.60;58.00
59505;DHT22;45321;53.200;5.814;2023-09-08T12:52:46;30.50;58.20
59505;DHT22;45321;53.200;5.814;2023-09-08T12:55:12;30.60;57.30
59505;DHT22;45321;53.200;5.814;2023-09-08T12:57:38;30.60;56.40
59505;DHT22;45321;53.200;5.814;2023-09-08T13:00:04;30.60;55.70
59505;DHT22;45321;53.200;5.814;2023-09-08T13:02:30;30.60;55.30
59505;DHT22;45321;53.200;5.814;2023-09-08T13:04:56;30.60;57.30
59505;DHT22;45321;53.200;5.814;2023-09-08T13:07:23;30.60;57.70
59505;DHT22;45321;53.200;5.814;2023-09-08T13:09:49;30.70;57.70
59505;DHT22;45321;53.200;5.814;2023-09-08T13:12:16;30.70;54.80
59505;DHT22;45321;53.200;5.814;2023-09-08T13:14:42;30.70;56.40
59505;DHT22;45321;53.200;5.814;2023-09-08T13:17:12;30.70;55.60
59505;DHT22;45321;53.200;5.814;2023-09-08T13:19:38;30.70;56.90
59505;DHT22;45321;53.200;5.814;2023-09-08T13:22:05;30.80;57.10
59505;DHT22;45321;53.200;5.814;2023-09-08T13:24:31;30.90;57.00
59505;DHT22;45321;53.200;5.814;2023-09-08T13:26:57;31.00;57.50
59505;DHT22;45321;53.200;5.814;2023-09-08T13:29:23;31.10;57.10
59505;DHT22;45321;53.200;5.814;2023-09-08T13:31:48;31.20;56.20
59505;DHT22;45321;53.200;5.814;2023-09-08T13:34:14;31.20;57.30
59505;DHT22;45321;53.200;5.814;2023-09-08T13:36:40;31.30;56.60
59505;DHT22;45321;53.200;5.814;2023-09-08T13:39:05;31.30;56.70
59505;DHT22;45321;53.200;5.814;2023-09-08T13:41:53;31.40;56.70
59505;DHT22;45321;53.200;5.814;2023-09-08T13:44:20;31.40;54.90
59505;DHT22;45321;53.200;5.814;2023-09-08T13:46:47;31.50;54.80
59505;DHT22;45321;53.200;5.814;2023-09-08T13:49:14;31.60;55.40
59505;DHT22;45321;53.200;5.814;2023-09-08T13:51:39;31.70;55.00
59505;DHT22;45321;53.200;5.814;2023-09-08T13:54:07;31.80;55.30
59505;DHT22;45321;53.200;5.814;2023-09-08T13:56:33;32.00;55.10
59505;DHT22;45321;53.200;5.814;2023-09-08T13:59:00;32.10;55.00
59505;DHT22;45321;53.200;5.814;2023-09-08T14:01:27;32.20;54.60
59505;DHT22;45321;53.200;5.814;2023-09-08T14:03:55;32.60;53.80
59505;DHT22;45321;53.200;5.814;2023-09-08T14:06:22;32.70;52.50
59505;DHT22;45321;53.200;5.814;2023-09-08T14:08:48;33.10;52.60
59505;DHT22;45321;53.200;5.814;2023-09-08T14:11:14;33.30;51.50
59505;DHT22;45321;53.200;5.814;2023-09-08T14:13:40;33.50;52.30
59505;DHT22;45321;53.200;5.814;2023-09-08T14:16:05;33.50;50.60
59505;DHT22;45321;53.200;5.814;2023-09-08T14:18:31;33.40;50.70
59505;DHT22;45321;53.200;5.814;2023-09-08T14:20:57;33.40;51.80
59505;DHT22;45321;53.200;5.814;2023-09-08T14:23:23;33.60;51.40
59505;DHT22;45321;53.200;5.814;2023-09-08T14:25:48;33.70;50.90
59505;DHT22;45321;53.200;5.814;2023-09-08T14:28:14;33.80;50.50
59505;DHT22;45321;53.200;5.814;2023-09-08T14:30:40;33.90;50.80
59505;DHT22;45321;53.200;5.814;2023-09-08T14:33:06;34.00;50.20
59505;DHT22;45321;53.200;5.814;2023-09-08T14:35:32;34.10;49.90
59505;DHT22;45321;53.200;5.814;2023-09-08T14:37:58;34.20;50.10
59505;DHT22;45321;53.200;5.814;2023-09-08T14:40:24;34.40;49.60
59505;DHT22;45321;53.200;5.814;2023-09-08T14:42:50;34.70;49.90
59505;DHT22;45321;53.200;5.814;2023-09-08T14:45:15;34.90;49.60
59505;DHT22;45321;53.200;5.814;2023-09-08T14:47:41;35.10;49.20
59505;DHT22;45321;53.200;5.814;2023-09-08T14:50:07;35.30;48.90
59505;DHT22;45321;53.200;5.814;2023-09-08T14:52:33;35.50;48.60
59505;DHT22;45321;53.200;5.814;2023-09-08T14:54:59;35.80;47.60
59505;DHT22;45321;53.200;5.814;2023-09-08T14:57:25;36.30;46.20
59505;DHT22;45321;53.200;5.814;2023-09-08T14:59:51;36.80;45.80
59505;DHT22;45321;53.200;5.814;2023-09-08T15:02:21;37.20;44.30
59505;DHT22;45321;53.200;5.814;2023-09-08T15:04:47;37.60;44.20
59505;DHT22;45321;53.200;5.814;2023-09-08T15:07:12;38.10;44.00
59505;DHT22;45321;53.200;5.814;2023-09-08T15:09:38;38.50;41.60
59505;DHT22;45321;53.200;5.814;2023-09-08T15:12:04;38.60;42.60
59505;DHT22;45321;53.200;5.814;2023-09-08T15:14:30;38.80;42.20
59505;DHT22;45321;53.200;5.814;2023-09-08T15:16:56;38.90;41.80
59505;DHT22;45321;53.200;5.814;2023-09-08T15:19:22;38.90;40.80
59505;DHT22;45321;53.200;5.814;2023-09-08T15:21:47;38.70;41.70
59505;DHT22;45321;53.200;5.814;2023-09-08T15:24:13;38.40;42.60
59505;DHT22;45321;53.200;5.814;2023-09-08T15:26:39;38.10;42.50
59505;DHT22;45321;53.200;5.814;2023-09-08T15:29:05;38.10;42.40
59505;DHT22;45321;53.200;5.814;2023-09-08T15:31:31;38.10;41.40
59505;DHT22;45321;53.200;5.814;2023-09-08T15:33:57;38.00;40.80
59505;DHT22;45321;53.200;5.814;2023-09-08T15:36:22;37.40;43.30